Time;durP1;ratioP1;P1;durP2;ratioP2;P2;SDS_P1;SDS_P2;PMS_P1;PMS_P2;Temp;Humidity;BMP_temperature;BMP_pressure;BME280_temperature;BME280_humidity;BME280_pressure;Samples;Min_cycle;Max_cycle;Signal;HPM_P1;HPM_P2
2022/11/15 00:04:23;;;;;;;8.88;3.15;;;;;;;;;;10524422;28;20048;-75
2022/11/15 00:09:26;;;;;;;4.07;2.33;;;;;;;;;;10514530;28;20044;-77
2022/11/15 00:14:31;;;;;;;6.75;2.92;;;;;;;;;;10525488;28;20530;-76
2022/11/15 00:19:35;;;;;;;5.30;2.35;;;;;;;;;;10533745;28;20040;-78
2022/11/15 00:24:37;;;;;;;3.95;2.45;;;;;;;;;;10515654;28;20044;-76
2022/11/15 00:29:43;;;;;;;5.57;3.03;;;;;;;;;;10516553;28;20066;-75
2022/11/15 00:34:47;;;;;;;5.07;2.50;;;;;;;;;;10526532;27;20501;-75
2022/11/15 00:39:49;;;;;;;5.53;2.60;;;;;;;;;;10521194;28;20036;-75
2022/11/15 00:44:52;;;;;;;4.68;2.28;;;;;;;;;;10515525;28;20119;-74
2022/11/15 00:49:56;;;;;;;6.22;2.42;;;;;;;;;;10520886;28;20039;-76
2022/11/15 00:55:01;;;;;;;3.42;1.70;;;;;;;;;;10536469;28;20560;-76
2022/11/15 01:00:04;;;;;;;3.65;1.85;;;;;;;;;;10520647;28;20029;-76
2022/11/15 01:05:08;;;;;;;6.63;2.80;;;;;;;;;;10517020;28;20530;-76
2022/11/15 01:10:11;;;;;;;5.05;1.95;;;;;;;;;;10518266;28;20037;-75
2022/11/15 01:15:14;;;;;;;4.72;1.90;;;;;;;;;;10510004;28;20112;-75
2022/11/15 01:20:19;;;;;;;2.47;1.70;;;;;;;;;;10518914;28;20119;-74
2022/11/15 01:25:21;;;;;;;1.85;1.25;;;;;;;;;;10514667;28;20052;-75
2022/11/15 01:30:24;;;;;;;3.92;2.17;;;;;;;;;;10523597;28;20054;-75
2022/11/15 01:35:28;;;;;;;2.40;1.45;;;;;;;;;;10521753;28;20572;-75
2022/11/15 01:40:31;;;;;;;2.17;1.38;;;;;;;;;;10532612;28;20147;-75
2022/11/15 01:45:35;;;;;;;;;;;;;;;;;;10515451;28;20097;-75
2022/11/15 01:50:39;;;;;;;1.88;0.93;;;;;;;;;;10513990;28;20396;-75
2022/11/15 01:55:42;;;;;;;1.05;0.75;;;;;;;;;;10518534;28;20792;-77
2022/11/15 02:00:44;;;;;;;5.57;2.60;;;;;;;;;;10516757;28;20508;-75
2022/11/15 02:05:49;;;;;;;4.55;2.20;;;;;;;;;;10518093;28;20086;-77
2022/11/15 02:10:53;;;;;;;7.63;2.53;;;;;;;;;;10514578;28;20032;-77
2022/11/15 02:16:00;;;;;;;4.55;2.60;;;;;;;;;;10517157;28;20040;-76
2022/11/15 02:21:19;;;;;;;5.00;2.70;;;;;;;;;;10522034;28;20051;-74
2022/11/15 02:26:44;;;;;;;6.53;2.38;;;;;;;;;;10522884;28;20071;-74
2022/11/15 02:31:52;;;;;;;5.18;2.38;;;;;;;;;;10518974;28;20063;-76
2022/11/15 02:36:58;;;;;;;5.85;2.45;;;;;;;;;;10525742;28;20241;-75
2022/11/15 02:42:03;;;;;;;4.80;2.15;;;;;;;;;;10524941;28;20032;-75
2022/11/15 02:47:15;;;;;;;5.68;2.58;;;;;;;;;;10524149;28;20498;-74
2022/11/15 02:52:19;;;;;;;4.38;2.38;;;;;;;;;;10526548;28;20038;-76
2022/11/15 02:57:30;;;;;;;6.70;2.50;;;;;;;;;;10523768;28;20101;-76
2022/11/15 03:02:41;;;;;;;4.03;2.05;;;;;;;;;;10519445;28;20398;-77
2022/11/15 03:07:46;;;;;;;5.82;2.05;;;;;;;;;;10521768;28;20129;-75
2022/11/15 03:12:52;;;;;;;3.03;1.73;;;;;;;;;;10519599;28;20497;-76
2022/11/15 03:18:09;;;;;;;3.08;1.65;;;;;;;;;;10526197;28;21430;-76
2022/11/15 03:23:12;;;;;;;1.98;0.93;;;;;;;;;;10515826;28;20082;-76
2022/11/15 03:28:17;;;;;;;5.47;1.13;;;;;;;;;;10507758;28;20055;-77
2022/11/15 03:33:22;;;;;;;1.33;0.90;;;;;;;;;;10519190;28;20040;-75
2022/11/15 03:38:26;;;;;;;1.58;0.73;;;;;;;;;;10520708;28;20264;-76
2022/11/15 03:43:34;;;;;;;3.90;1.75;;;;;;;;;;10517602;28;20040;-76
2022/11/15 03:48:42;;;;;;;1.85;1.23;;;;;;;;;;10522053;28;20555;-78
2022/11/15 03:53:46;;;;;;;3.58;1.73;;;;;;;;;;10519898;28;20052;-76
2022/11/15 03:58:48;;;;;;;3.78;1.70;;;;;;;;;;10524526;28;20517;-75
2022/11/15 04:03:52;;;;;;;4.28;2.00;;;;;;;;;;10525195;28;20032;-76
2022/11/15 04:08:55;;;;;;;3.50;1.95;;;;;;;;;;10519857;28;20448;-76
2022/11/15 04:13:57;;;;;;;3.70;1.95;;;;;;;;;;10531914;28;20078;-76
2022/11/15 04:24:21;;;;;;;2.20;0.95;;;;;;;;;;10524741;28;20055;-74
2022/11/15 04:29:35;;;;;;;3.10;1.38;;;;;;;;;;10518610;28;20056;-74
2022/11/15 04:34:39;;;;;;;3.80;1.77;;;;;;;;;;10515346;28;20044;-76
2022/11/15 04:39:43;;;;;;;2.70;1.42;;;;;;;;;;10518166;28;20051;-76
2022/11/15 04:44:46;;;;;;;4.38;1.83;;;;;;;;;;10513018;28;20040;-75
2022/11/15 04:49:51;;;;;;;2.23;1.43;;;;;;;;;;10499602;28;20577;-74
2022/11/15 04:54:53;;;;;;;2.70;1.63;;;;;;;;;;10521215;28;20435;-75
2022/11/15 04:59:56;;;;;;;3.10;1.13;;;;;;;;;;10516406;28;20375;-75
2022/11/15 05:05:00;;;;;;;1.92;1.02;;;;;;;;;;10512820;28;20040;-75
2022/11/15 05:10:03;;;;;;;2.97;1.60;;;;;;;;;;10508017;28;20395;-75
2022/11/15 05:15:06;;;;;;;3.97;1.77;;;;;;;;;;10515617;28;20041;-76
2022/11/15 05:20:11;;;;;;;1.67;0.90;;;;;;;;;;10516973;28;20047;-74
2022/11/15 05:25:13;;;;;;;2.65;1.50;;;;;;;;;;10513040;28;20048;-75
2022/11/15 05:30:18;;;;;;;0.55;0.50;;;;;;;;;;10515975;28;20064;-76
2022/11/15 05:35:28;;;;;;;2.40;0.70;;;;;;;;;;10520112;28;20051;-76
2022/11/15 05:40:31;;;;;;;1.27;0.82;;;;;;;;;;10518380;28;20039;-76
2022/11/15 05:45:34;;;;;;;1.92;1.05;;;;;;;;;;10505942;28;20101;-76
2022/11/15 05:50:42;;;;;;;1.95;1.20;;;;;;;;;;10522772;28;20496;-76
2022/11/15 05:55:45;;;;;;;3.78;1.75;;;;;;;;;;10523625;28;20062;-75
2022/11/15 06:00:47;;;;;;;3.45;1.60;;;;;;;;;;10519295;28;20040;-74
2022/11/15 06:05:51;;;;;;;4.40;1.80;;;;;;;;;;10515158;28;20529;-75
2022/11/15 06:10:54;;;;;;;2.47;1.38;;;;;;;;;;10518222;28;20039;-76
2022/11/15 06:15:57;;;;;;;2.53;1.10;;;;;;;;;;10518745;28;20451;-77
2022/11/15 06:21:01;;;;;;;3.72;1.70;;;;;;;;;;10521103;28;20040;-73
2022/11/15 06:26:07;;;;;;;7.40;1.83;;;;;;;;;;10524019;28;20040;-75
2022/11/15 06:31:11;;;;;;;6.75;2.17;;;;;;;;;;10526006;28;20063;-75
2022/11/15 06:36:16;;;;;;;5.07;1.63;;;;;;;;;;10524128;28;20055;-73
2022/11/15 06:41:20;;;;;;;3.17;1.73;;;;;;;;;;10514152;28;20349;-75
2022/11/15 06:46:23;;;;;;;3.75;1.33;;;;;;;;;;10520136;28;20223;-75
2022/11/15 06:51:27;;;;;;;2.50;1.45;;;;;;;;;;10525242;28;20128;-75
2022/11/15 06:56:30;;;;;;;3.58;1.58;;;;;;;;;;10527965;28;20454;-76
2022/11/15 07:01:32;;;;;;;5.95;1.90;;;;;;;;;;10525407;28;20036;-75
2022/11/15 07:06:36;;;;;;;2.42;1.05;;;;;;;;;;10523152;28;20044;-76
2022/11/15 07:11:39;;;;;;;7.78;2.17;;;;;;;;;;10514522;28;20134;-77
2022/11/15 07:16:41;;;;;;;2.75;1.92;;;;;;;;;;10510378;28;20044;-78
2022/11/15 07:21:46;;;;;;;3.92;2.20;;;;;;;;;;10514862;28;20044;-75
2022/11/15 07:26:49;;;;;;;9.18;2.45;;;;;;;;;;10503843;28;20047;-74
2022/11/15 07:31:51;;;;;;;6.22;2.55;;;;;;;;;;10507264;28;20564;-76
2022/11/15 07:36:56;;;;;;;4.63;2.50;;;;;;;;;;10501079;28;20330;-75
2022/11/15 07:47:15;;;;;;;7.82;2.65;;;;;;;;;;10515568;28;20127;-75
2022/11/15 07:52:19;;;;;;;10.02;2.33;;;;;;;;;;10512107;28;20577;-75
2022/11/15 07:57:21;;;;;;;3.88;2.63;;;;;;;;;;10517877;28;20047;-76
2022/11/15 08:02:24;;;;;;;4.93;2.47;;;;;;;;;;10501540;28;20036;-75
2022/11/15 08:07:34;;;;;;;9.43;2.92;;;;;;;;;;10515093;28;20086;-76
2022/11/15 08:12:37;;;;;;;10.20;3.50;;;;;;;;;;10506775;28;20665;-77
2022/11/15 08:17:39;;;;;;;5.85;3.10;;;;;;;;;;10501996;28;20036;-75
2022/11/15 08:22:43;;;;;;;6.95;3.03;;;;;;;;;;10511340;28;20036;-75
2022/11/15 08:27:52;;;;;;;6.18;2.88;;;;;;;;;;10505871;28;20044;-75
2022/11/15 08:32:57;;;;;;;5.13;3.25;;;;;;;;;;10505931;28;20047;-76
2022/11/15 08:38:01;;;;;;;6.57;3.15;;;;;;;;;;10511689;28;20680;-75
2022/11/15 08:43:04;;;;;;;8.25;4.65;;;;;;;;;;10501424;28;20123;-76
2022/11/15 08:48:06;;;;;;;11.20;4.35;;;;;;;;;;10500622;28;20264;-77
2022/11/15 08:53:10;;;;;;;6.45;4.00;;;;;;;;;;10509729;28;20055;-75
2022/11/15 08:58:19;;;;;;;7.03;3.97;;;;;;;;;;10503161;28;20048;-74
2022/11/15 09:03:22;;;;;;;5.10;3.80;;;;;;;;;;10505512;28;20036;-77
2022/11/15 09:08:30;;;;;;;4.65;3.53;;;;;;;;;;10515209;28;20230;-76
2022/11/15 09:13:52;;;;;;;5.47;3.30;;;;;;;;;;10500007;28;20624;-75
2022/11/15 09:18:55;;;;;;;5.70;3.80;;;;;;;;;;10503323;28;20069;-76
2022/11/15 09:23:59;;;;;;;5.65;4.20;;;;;;;;;;10522510;27;20099;-75
2022/11/15 09:29:02;;;;;;;6.25;3.60;;;;;;;;;;10507274;28;20068;-75
2022/11/15 09:34:04;;;;;;;5.47;3.67;;;;;;;;;;10501588;28;20135;-76
2022/11/15 09:39:09;;;;;;;4.75;3.60;;;;;;;;;;10501864;28;20040;-77
2022/11/15 09:44:27;;;;;;;3.88;3.20;;;;;;;;;;10502533;28;20104;-78
2022/11/15 09:49:30;;;;;;;5.55;3.05;;;;;;;;;;10511057;28;20097;-76
2022/11/15 09:54:36;;;;;;;8.27;4.03;;;;;;;;;;10510982;28;20123;-76
2022/11/15 10:00:00;;;;;;;7.63;4.22;;;;;;;;;;10513754;28;20509;-77
2022/11/15 10:05:27;;;;;;;8.20;4.43;;;;;;;;;;10513971;28;20097;-77
2022/11/15 10:10:33;;;;;;;7.30;3.88;;;;;;;;;;10509709;28;20074;-75
2022/11/15 10:15:37;;;;;;;6.18;3.83;;;;;;;;;;10515092;28;20037;-75
2022/11/15 10:20:44;;;;;;;4.13;2.88;;;;;;;;;;10509009;28;20093;-75
2022/11/15 10:25:51;;;;;;;4.10;3.00;;;;;;;;;;10512529;28;20035;-74
2022/11/15 10:30:54;;;;;;;3.38;2.53;;;;;;;;;;10505731;28;20047;-75
2022/11/15 10:36:12;;;;;;;3.92;2.67;;;;;;;;;;10502579;28;20036;-75
2022/11/15 10:41:17;;;;;;;3.28;2.63;;;;;;;;;;10516309;28;20051;-74
2022/11/15 10:46:20;;;;;;;3.38;2.83;;;;;;;;;;10520425;28;20031;-77
2022/11/15 10:51:45;;;;;;;12.27;6.55;;;;;;;;;;10523444;28;21013;-74
2022/11/15 10:56:51;;;;;;;4.18;2.55;;;;;;;;;;10520131;28;20036;-74
2022/11/15 11:01:54;;;;;;;11.13;3.95;;;;;;;;;;10522584;28;20535;-75
2022/11/15 11:06:58;;;;;;;8.07;3.85;;;;;;;;;;10522307;28;20062;-75
2022/11/15 11:12:03;;;;;;;4.25;2.50;;;;;;;;;;10519037;28;20040;-77
2022/11/15 11:17:17;;;;;;;27.58;13.88;;;;;;;;;;10527004;27;20060;-74
2022/11/15 11:22:23;;;;;;;5.72;2.83;;;;;;;;;;10510247;28;20518;-75
2022/11/15 11:27:36;;;;;;;3.03;2.40;;;;;;;;;;10516121;28;20060;-74
2022/11/15 11:32:49;;;;;;;2.55;2.35;;;;;;;;;;10528315;28;20501;-75
2022/11/15 11:38:03;;;;;;;2.75;2.53;;;;;;;;;;10508257;28;20314;-75
2022/11/15 11:43:12;;;;;;;4.95;2.63;;;;;;;;;;10497481;28;20601;-76
2022/11/15 11:48:21;;;;;;;3.28;2.60;;;;;;;;;;10521894;28;20049;-75
2022/11/15 11:53:27;;;;;;;4.45;2.67;;;;;;;;;;10518738;28;20045;-76
2022/11/15 11:58:35;;;;;;;2.80;2.50;;;;;;;;;;10515853;28;20131;-78
2022/11/15 12:03:40;;;;;;;2.90;2.60;;;;;;;;;;10517394;28;20090;-78
2022/11/15 12:08:46;;;;;;;2.88;2.50;;;;;;;;;;10498517;28;20111;-76
2022/11/15 12:13:54;;;;;;;2.88;2.20;;;;;;;;;;10503363;28;20039;-76
2022/11/15 12:19:00;;;;;;;2.80;2.30;;;;;;;;;;10500058;28;20154;-75
2022/11/15 12:24:05;;;;;;;4.00;2.50;;;;;;;;;;10489006;28;20103;-74
2022/11/15 12:29:13;;;;;;;4.45;2.28;;;;;;;;;;10501238;28;20044;-75
2022/11/15 12:34:31;;;;;;;4.68;2.40;;;;;;;;;;10506802;28;20047;-75
2022/11/15 12:39:52;;;;;;;2.90;2.20;;;;;;;;;;10518535;27;20074;-76
2022/11/15 12:44:59;;;;;;;2.40;1.70;;;;;;;;;;10511953;28;20056;-76
2022/11/15 12:50:02;;;;;;;3.42;2.25;;;;;;;;;;10511674;28;20044;-75
2022/11/15 12:55:05;;;;;;;;;;;;;;;;;;10511863;28;20044;-74
2022/11/15 13:00:27;;;;;;;2.45;2.22;;;;;;;;;;10524068;28;19973;-75
2022/11/15 13:05:55;;;;;;;2.35;2.00;;;;;;;;;;10512019;28;20035;-74
2022/11/15 13:11:20;;;;;;;2.40;2.20;;;;;;;;;;10486620;28;20037;-76
2022/11/15 13:16:23;;;;;;;4.03;2.40;;;;;;;;;;10506269;28;20428;-76
2022/11/15 13:26:47;;;;;;;3.97;2.17;;;;;;;;;;10500824;28;20581;-75
2022/11/15 13:31:50;;;;;;;2.85;2.10;;;;;;;;;;10520204;27;20051;-76
2022/11/15 13:37:03;;;;;;;3.78;2.25;;;;;;;;;;10511570;28;20412;-75
2022/11/15 13:42:15;;;;;;;4.78;2.85;;;;;;;;;;10508402;28;20484;-75
2022/11/15 13:47:20;;;;;;;5.75;2.60;;;;;;;;;;10510129;28;20059;-78
2022/11/15 13:52:25;;;;;;;5.70;2.40;;;;;;;;;;10509778;28;20473;-76
2022/11/15 13:57:32;;;;;;;8.77;2.83;;;;;;;;;;10511138;28;20063;-76
2022/11/15 14:02:36;;;;;;;4.70;2.60;;;;;;;;;;10505648;28;20143;-76
2022/11/15 14:07:38;;;;;;;7.60;2.17;;;;;;;;;;10508613;28;20036;-74
2022/11/15 14:12:52;;;;;;;6.45;2.75;;;;;;;;;;10511785;28;20043;-77
2022/11/15 14:17:55;;;;;;;3.88;2.38;;;;;;;;;;10499709;28;20448;-75
2022/11/15 14:22:58;;;;;;;5.87;2.43;;;;;;;;;;10508643;28;20044;-75
2022/11/15 14:28:17;;;;;;;6.72;2.95;;;;;;;;;;10520064;28;20255;-76
2022/11/15 14:33:31;;;;;;;6.45;3.10;;;;;;;;;;10521381;28;20119;-75
2022/11/15 14:38:34;;;;;;;5.00;3.20;;;;;;;;;;10521382;28;20044;-76
2022/11/15 14:43:38;;;;;;;6.57;3.25;;;;;;;;;;10519436;28;20036;-77
2022/11/15 14:48:41;;;;;;;6.00;3.35;;;;;;;;;;10510827;28;20048;-74
2022/11/15 14:53:44;;;;;;;7.05;3.83;;;;;;;;;;10513179;28;20506;-74
2022/11/15 14:58:48;;;;;;;6.60;3.50;;;;;;;;;;10512017;28;20090;-74
2022/11/15 15:03:53;;;;;;;6.93;3.22;;;;;;;;;;10505241;28;20139;-75
2022/11/15 15:08:56;;;;;;;8.25;3.92;;;;;;;;;;10520548;28;20044;-76
2022/11/15 15:14:01;;;;;;;9.40;3.85;;;;;;;;;;10509382;28;20062;-76
2022/11/15 15:19:03;;;;;;;8.10;3.78;;;;;;;;;;10523487;28;20147;-78
2022/11/15 15:24:06;;;;;;;8.50;4.00;;;;;;;;;;10515094;28;20076;-76
2022/11/15 15:29:10;;;;;;;9.65;4.20;;;;;;;;;;10517511;28;20119;-75
2022/11/15 15:34:13;;;;;;;9.68;4.30;;;;;;;;;;10516066;28;20067;-75
2022/11/15 15:39:21;;;;;;;7.78;4.30;;;;;;;;;;10516310;28;20047;-74
2022/11/15 15:44:25;;;;;;;8.65;4.40;;;;;;;;;;10512716;28;20040;-74
2022/11/15 15:49:27;;;;;;;;;;;;;;;;;;10518043;28;20047;-75
2022/11/15 15:54:30;;;;;;;9.20;4.20;;;;;;;;;;10516315;28;19935;-75
2022/11/15 15:59:34;;;;;;;12.27;4.80;;;;;;;;;;10516298;28;20295;-76
2022/11/15 16:04:36;;;;;;;12.45;4.80;;;;;;;;;;10525448;28;20378;-75
2022/11/15 16:15:01;;;;;;;8.95;4.82;;;;;;;;;;10514715;28;20032;-75
2022/11/15 16:20:04;;;;;;;7.30;4.07;;;;;;;;;;10515393;28;20035;-75
2022/11/15 16:25:08;;;;;;;10.50;4.90;;;;;;;;;;10520911;28;20119;-76
2022/11/15 16:30:13;;;;;;;10.20;4.65;;;;;;;;;;10522634;28;20471;-76
2022/11/15 16:35:21;;;;;;;10.48;4.88;;;;;;;;;;10517714;28;20139;-77
2022/11/15 16:40:26;;;;;;;12.50;5.22;;;;;;;;;;10514116;28;20436;-74
2022/11/15 16:45:31;;;;;;;9.90;5.00;;;;;;;;;;10534504;28;20390;-75
2022/11/15 16:50:39;;;;;;;15.60;6.22;;;;;;;;;;10510330;28;20073;-76
2022/11/15 16:55:42;;;;;;;12.23;5.57;;;;;;;;;;10516684;28;20040;-75
2022/11/15 17:00:50;;;;;;;13.27;5.47;;;;;;;;;;10510839;28;20044;-77
2022/11/15 17:05:53;;;;;;;14.32;5.65;;;;;;;;;;10512537;28;20044;-75
2022/11/15 17:10:55;;;;;;;12.75;5.45;;;;;;;;;;10530568;28;20039;-77
2022/11/15 17:16:05;;;;;;;16.05;6.05;;;;;;;;;;10533204;28;20040;-76
2022/11/15 17:21:08;;;;;;;12.75;5.38;;;;;;;;;;10525366;28;20051;-77
2022/11/15 17:26:11;;;;;;;13.37;5.93;;;;;;;;;;10521202;28;20085;-75
2022/11/15 17:31:33;;;;;;;13.63;5.95;;;;;;;;;;10519092;28;20048;-75
2022/11/15 17:36:36;;;;;;;13.73;6.13;;;;;;;;;;10512550;28;20048;-75
2022/11/15 17:41:38;;;;;;;17.08;6.20;;;;;;;;;;10514837;28;20044;-76
2022/11/15 17:46:53;;;;;;;11.43;5.53;;;;;;;;;;10519602;28;20105;-76
2022/11/15 17:51:55;;;;;;;13.73;5.75;;;;;;;;;;10530101;28;20109;-76
2022/11/15 17:56:58;;;;;;;17.88;5.88;;;;;;;;;;10539027;28;20041;-76
2022/11/15 18:02:02;;;;;;;14.52;6.28;;;;;;;;;;10528766;28;20115;-75
2022/11/15 18:07:05;;;;;;;14.65;6.35;;;;;;;;;;10538613;28;20064;-76
2022/11/15 18:12:07;;;;;;;17.90;6.20;;;;;;;;;;10536327;28;20040;-75
2022/11/15 18:17:11;;;;;;;15.90;6.13;;;;;;;;;;10523415;28;20090;-74
2022/11/15 18:22:14;;;;;;;15.02;6.38;;;;;;;;;;10527872;28;20090;-74
2022/11/15 18:27:17;;;;;;;12.38;6.03;;;;;;;;;;10532571;28;20549;-75
2022/11/15 18:32:21;;;;;;;12.32;5.60;;;;;;;;;;10542930;27;20067;-75
2022/11/15 18:37:23;;;;;;;12.32;7.20;;;;;;;;;;10528074;28;20029;-76
2022/11/15 18:42:26;;;;;;;14.82;6.35;;;;;;;;;;10515927;28;20450;-75
2022/11/15 18:47:30;;;;;;;16.48;7.68;;;;;;;;;;10533232;28;20400;-76
2022/11/15 18:52:33;;;;;;;14.93;6.53;;;;;;;;;;10518507;28;20047;-75
2022/11/15 18:57:36;;;;;;;10.85;5.30;;;;;;;;;;10530185;28;20612;-76
2022/11/15 19:02:40;;;;;;;17.05;6.60;;;;;;;;;;10521997;28;20039;-76
2022/11/15 19:07:42;;;;;;;14.05;6.57;;;;;;;;;;10528105;28;20093;-74
2022/11/15 19:12:46;;;;;;;14.50;7.57;;;;;;;;;;10518993;28;20149;-76
2022/11/15 19:17:55;;;;;;;18.42;7.28;;;;;;;;;;10529530;28;20043;-75
2022/11/15 19:22:58;;;;;;;16.88;5.15;;;;;;;;;;10523149;28;20608;-75
2022/11/15 19:28:00;;;;;;;13.35;5.60;;;;;;;;;;10524590;28;20044;-75
2022/11/15 19:33:04;;;;;;;17.38;7.15;;;;;;;;;;10524444;28;20417;-75
2022/11/15 19:38:10;;;;;;;23.85;7.65;;;;;;;;;;10505298;28;20036;-76
2022/11/15 19:43:13;;;;;;;20.75;8.23;;;;;;;;;;10520776;28;20044;-76
2022/11/15 19:48:17;;;;;;;11.63;4.28;;;;;;;;;;10520154;28;20090;-75
2022/11/15 19:53:20;;;;;;;20.02;7.50;;;;;;;;;;10522321;28;20128;-75
2022/11/15 19:58:23;;;;;;;12.75;5.85;;;;;;;;;;10523220;28;20036;-75
2022/11/15 20:03:27;;;;;;;20.00;7.90;;;;;;;;;;10523972;28;20043;-76
2022/11/15 20:08:30;;;;;;;33.05;10.75;;;;;;;;;;10506246;28;20044;-76
2022/11/15 20:13:34;;;;;;;22.73;7.82;;;;;;;;;;10528136;28;20128;-77
2022/11/15 20:18:38;;;;;;;12.40;4.20;;;;;;;;;;10519402;28;20043;-76
2022/11/15 20:23:41;;;;;;;6.55;3.00;;;;;;;;;;10518700;28;20044;-76
2022/11/15 20:28:44;;;;;;;17.30;5.78;;;;;;;;;;10520682;28;20028;-78
2022/11/15 20:33:48;;;;;;;10.40;4.50;;;;;;;;;;10508011;28;20060;-76
2022/11/15 20:38:51;;;;;;;7.53;3.03;;;;;;;;;;10514714;28;20138;-75
2022/11/15 20:43:54;;;;;;;12.50;5.07;;;;;;;;;;10494237;28;20124;-75
2022/11/15 20:48:58;;;;;;;10.98;4.80;;;;;;;;;;10521477;28;20036;-76
2022/11/15 20:54:02;;;;;;;13.30;6.18;;;;;;;;;;10505128;28;20056;-76
2022/11/15 20:59:06;;;;;;;12.38;5.25;;;;;;;;;;10506257;28;20036;-76
2022/11/15 21:04:09;;;;;;;;;;;;;;;;;;10515906;28;20032;-76
2022/11/15 21:14:33;;;;;;;11.02;5.10;;;;;;;;;;10512924;28;20075;-77
2022/11/15 21:19:36;;;;;;;7.95;3.05;;;;;;;;;;10518361;28;20055;-75
2022/11/15 21:24:40;;;;;;;14.75;4.95;;;;;;;;;;10516058;28;20093;-75
2022/11/15 21:29:48;;;;;;;13.13;5.25;;;;;;;;;;10531780;28;20081;-75
2022/11/15 21:34:51;;;;;;;14.15;6.05;;;;;;;;;;10493882;28;20040;-76
2022/11/15 21:39:55;;;;;;;8.40;4.55;;;;;;;;;;10516089;28;20043;-76
2022/11/15 21:44:57;;;;;;;10.27;4.88;;;;;;;;;;10490482;28;20761;-74
2022/11/15 21:50:00;;;;;;;10.52;4.03;;;;;;;;;;10518018;28;20131;-74
2022/11/15 21:55:05;;;;;;;17.67;7.22;;;;;;;;;;10517830;28;20040;-76
2022/11/15 22:05:28;;;;;;;13.98;6.30;;;;;;;;;;10512119;28;20051;-76
2022/11/15 22:10:32;;;;;;;17.02;6.68;;;;;;;;;;10519124;28;21936;-76
2022/11/15 22:15:35;;;;;;;7.05;3.05;;;;;;;;;;10515634;28;20217;-75
2022/11/15 22:20:38;;;;;;;6.82;2.53;;;;;;;;;;10514819;28;20052;-76
2022/11/15 22:25:50;;;;;;;12.57;5.15;;;;;;;;;;10518378;28;20120;-75
2022/11/15 22:30:53;;;;;;;20.02;5.80;;;;;;;;;;10523488;28;20032;-75
2022/11/15 22:35:56;;;;;;;14.30;5.45;;;;;;;;;;10518038;28;20048;-76
2022/11/15 22:41:01;;;;;;;15.10;6.93;;;;;;;;;;10526166;28;20032;-77
2022/11/15 22:46:04;;;;;;;15.45;5.05;;;;;;;;;;10526452;28;20485;-76
2022/11/15 22:51:07;;;;;;;12.15;5.20;;;;;;;;;;10523425;28;20055;-74
2022/11/15 22:56:11;;;;;;;26.70;8.75;;;;;;;;;;10527431;28;20043;-75
2022/11/15 23:01:22;;;;;;;12.98;4.22;;;;;;;;;;10529100;28;20576;-76
2022/11/15 23:06:24;;;;;;;7.93;2.25;;;;;;;;;;10519385;28;20564;-74
2022/11/15 23:16:49;;;;;;;7.85;3.92;;;;;;;;;;10529581;28;20040;-75
2022/11/15 23:27:18;;;;;;;13.25;5.18;;;;;;;;;;10527682;28;20044;-74
2022/11/15 23:37:51;;;;;;;13.45;4.55;;;;;;;;;;10514795;28;20073;-76
2022/11/15 23:42:57;;;;;;;10.30;4.50;;;;;;;;;;10521927;28;20040;-74
2022/11/15 23:48:00;;;;;;;7.80;3.80;;;;;;;;;;10523954;28;21678;-76
2022/11/15 23:53:08;;;;;;;11.25;4.88;;;;;;;;;;10516845;28;20545;-74
2022/11/15 23:58:12;;;;;;;10.63;4.22;;;;;;;;;;10517131;28;20371;-74
